sensor_id;sensor_type;location;lat;lon;timestamp;temperature;humidity
12688;DHT22;6408;59.388;17.798;2023-07-09T00:01:14;17.50;99.90
12688;DHT22;6408;59.388;17.798;2023-07-09T00:03:45;17.50;99.90
12688;DHT22;6408;59.388;17.798;2023-07-09T00:06:14;17.50;99.90
12688;DHT22;6408;59.388;17.798;2023-07-09T00:08:44;17.60;99.90
12688;DHT22;6408;59.388;17.798;2023-07-09T00:11:13;17.50;99.90
12688;DHT22;6408;59.388;17.798;2023-07-09T00:13:40;17.50;99.90
12688;DHT22;6408;59.388;17.798;2023-07-09T00:16:13;17.40;99.90
12688;DHT22;6408;59.388;17.798;2023-07-09T00:18:44;17.30;99.90
12688;DHT22;6408;59.388;17.798;2023-07-09T00:21:17;17.30;99.90
12688;DHT22;6408;59.388;17.798;2023-07-09T00:23:46;17.30;99.90
12688;DHT22;6408;59.388;17.798;2023-07-09T00:26:15;17.20;99.90
12688;DHT22;6408;59.388;17.798;2023-07-09T00:28:43;17.20;99.90
12688;DHT22;6408;59.388;17.798;2023-07-09T00:31:13;17.20;99.90
12688;DHT22;6408;59.388;17.798;2023-07-09T00:33:41;17.10;99.90
12688;DHT22;6408;59.388;17.798;2023-07-09T00:36:15;17.00;99.90
12688;DHT22;6408;59.388;17.798;2023-07-09T00:38:43;16.90;99.90
12688;DHT22;6408;59.388;17.798;2023-07-09T00:41:16;16.80;99.90
12688;DHT22;6408;59.388;17.798;2023-07-09T00:43:45;16.90;99.90
12688;DHT22;6408;59.388;17.798;2023-07-09T00:49:30;16.90;99.90
12688;DHT22;6408;59.388;17.798;2023-07-09T00:52:03;16.90;99.90
12688;DHT22;6408;59.388;17.798;2023-07-09T00:54:34;16.90;99.90
12688;DHT22;6408;59.388;17.798;2023-07-09T00:57:07;16.80;99.90
12688;DHT22;6408;59.388;17.798;2023-07-09T00:59:39;16.80;99.90
12688;DHT22;6408;59.388;17.798;2023-07-09T01:02:09;16.80;99.90
12688;DHT22;6408;59.388;17.798;2023-07-09T01:04:37;16.80;99.90
12688;DHT22;6408;59.388;17.798;2023-07-09T01:07:08;16.80;99.90
12688;DHT22;6408;59.388;17.798;2023-07-09T01:09:36;16.70;99.90
12688;DHT22;6408;59.388;17.798;2023-07-09T01:12:08;16.70;99.90
12688;DHT22;6408;59.388;17.798;2023-07-09T01:14:37;16.70;99.90
12688;DHT22;6408;59.388;17.798;2023-07-09T01:17:06;16.70;99.90
12688;DHT22;6408;59.388;17.798;2023-07-09T01:19:38;16.60;99.90
12688;DHT22;6408;59.388;17.798;2023-07-09T01:22:12;16.60;99.90
12688;DHT22;6408;59.388;17.798;2023-07-09T01:24:53;16.60;99.90
12688;DHT22;6408;59.388;17.798;2023-07-09T01:27:23;16.60;99.90
12688;DHT22;6408;59.388;17.798;2023-07-09T01:29:53;16.60;99.90
12688;DHT22;6408;59.388;17.798;2023-07-09T01:32:21;16.50;99.90
12688;DHT22;6408;59.388;17.798;2023-07-09T01:34:51;16.40;99.90
12688;DHT22;6408;59.388;17.798;2023-07-09T01:37:25;16.40;99.90
12688;DHT22;6408;59.388;17.798;2023-07-09T01:39:53;16.30;99.90
12688;DHT22;6408;59.388;17.798;2023-07-09T01:42:23;16.20;99.90
12688;DHT22;6408;59.388;17.798;2023-07-09T01:44:53;16.20;99.90
12688;DHT22;6408;59.388;17.798;2023-07-09T01:47:22;16.20;99.90
12688;DHT22;6408;59.388;17.798;2023-07-09T01:49:51;16.30;99.90
12688;DHT22;6408;59.388;17.798;2023-07-09T01:52:26;16.20;99.90
12688;DHT22;6408;59.388;17.798;2023-07-09T01:54:55;16.20;99.90
12688;DHT22;6408;59.388;17.798;2023-07-09T01:57:24;16.10;99.90
12688;DHT22;6408;59.388;17.798;2023-07-09T01:59:55;16.10;99.90
12688;DHT22;6408;59.388;17.798;2023-07-09T02:02:23;16.00;99.90
12688;DHT22;6408;59.388;17.798;2023-07-09T02:04:52;16.00;99.90
12688;DHT22;6408;59.388;17.798;2023-07-09T02:07:21;16.10;99.90
12688;DHT22;6408;59.388;17.798;2023-07-09T02:09:51;16.10;99.90
12688;DHT22;6408;59.388;17.798;2023-07-09T02:12:19;16.10;99.90
12688;DHT22;6408;59.388;17.798;2023-07-09T02:14:47;16.00;99.90
12688;DHT22;6408;59.388;17.798;2023-07-09T02:17:15;16.10;99.90
12688;DHT22;6408;59.388;17.798;2023-07-09T02:19:43;16.10;99.90
12688;DHT22;6408;59.388;17.798;2023-07-09T02:22:11;16.00;99.90
12688;DHT22;6408;59.388;17.798;2023-07-09T02:24:39;16.00;99.90
12688;DHT22;6408;59.388;17.798;2023-07-09T02:27:10;16.00;99.90
12688;DHT22;6408;59.388;17.798;2023-07-09T02:29:37;15.90;99.90
12688;DHT22;6408;59.388;17.798;2023-07-09T02:32:06;15.90;99.90
12688;DHT22;6408;59.388;17.798;2023-07-09T02:34:34;15.80;99.90
12688;DHT22;6408;59.388;17.798;2023-07-09T02:37:02;15.90;99.90
12688;DHT22;6408;59.388;17.798;2023-07-09T02:39:30;15.90;99.90
12688;DHT22;6408;59.388;17.798;2023-07-09T02:41:57;15.90;99.90
12688;DHT22;6408;59.388;17.798;2023-07-09T02:44:27;16.00;99.90
12688;DHT22;6408;59.388;17.798;2023-07-09T02:46:54;16.00;99.90
12688;DHT22;6408;59.388;17.798;2023-07-09T02:49:22;16.10;99.90
12688;DHT22;6408;59.388;17.798;2023-07-09T02:51:50;16.20;99.90
12688;DHT22;6408;59.388;17.798;2023-07-09T02:54:17;16.20;99.90
12688;DHT22;6408;59.388;17.798;2023-07-09T02:56:45;16.20;99.90
12688;DHT22;6408;59.388;17.798;2023-07-09T02:59:13;16.20;99.90
12688;DHT22;6408;59.388;17.798;2023-07-09T03:01:42;16.20;99.90
12688;DHT22;6408;59.388;17.798;2023-07-09T03:04:10;16.30;99.90
12688;DHT22;6408;59.388;17.798;2023-07-09T03:06:38;16.40;99.90
12688;DHT22;6408;59.388;17.798;2023-07-09T03:09:06;16.50;99.90
12688;DHT22;6408;59.388;17.798;2023-07-09T03:11:35;16.50;99.90
12688;DHT22;6408;59.388;17.798;2023-07-09T03:14:02;16.50;99.90
12688;DHT22;6408;59.388;17.798;2023-07-09T03:16:32;16.50;99.90
12688;DHT22;6408;59.388;17.798;2023-07-09T03:19:03;16.60;99.90
12688;DHT22;6408;59.388;17.798;2023-07-09T03:21:31;16.80;99.90
12688;DHT22;6408;59.388;17.798;2023-07-09T03:23:59;16.90;99.90
12688;DHT22;6408;59.388;17.798;2023-07-09T03:26:27;17.00;99.90
12688;DHT22;6408;59.388;17.798;2023-07-09T03:28:55;17.20;99.90
12688;DHT22;6408;59.388;17.798;2023-07-09T03:31:22;17.20;99.90
12688;DHT22;6408;59.388;17.798;2023-07-09T03:33:51;17.30;99.90
12688;DHT22;6408;59.388;17.798;2023-07-09T03:36:20;17.40;99.90
12688;DHT22;6408;59.388;17.798;2023-07-09T03:38:48;17.50;99.90
12688;DHT22;6408;59.388;17.798;2023-07-09T03:41:17;17.60;99.90
12688;DHT22;6408;59.388;17.798;2023-07-09T03:43:45;17.70;99.90
12688;DHT22;6408;59.388;17.798;2023-07-09T03:46:12;17.70;99.90
12688;DHT22;6408;59.388;17.798;2023-07-09T03:48:40;17.80;99.90
12688;DHT22;6408;59.388;17.798;2023-07-09T03:51:07;17.80;99.90
12688;DHT22;6408;59.388;17.798;2023-07-09T03:53:37;17.90;99.90
12688;DHT22;6408;59.388;17.798;2023-07-09T03:56:05;18.00;99.90
12688;DHT22;6408;59.388;17.798;2023-07-09T03:58:32;18.10;99.90
12688;DHT22;6408;59.388;17.798;2023-07-09T04:00:59;18.20;99.90
12688;DHT22;6408;59.388;17.798;2023-07-09T04:03:27;18.20;99.90
12688;DHT22;6408;59.388;17.798;2023-07-09T04:05:55;18.30;99.90
12688;DHT22;6408;59.388;17.798;2023-07-09T04:08:22;18.40;99.90
12688;DHT22;6408;59.388;17.798;2023-07-09T04:10:58;18.60;99.90
12688;DHT22;6408;59.388;17.798;2023-07-09T04:13:26;18.60;99.90
12688;DHT22;6408;59.388;17.798;2023-07-09T04:15:54;18.80;99.90
12688;DHT22;6408;59.388;17.798;2023-07-09T04:18:21;18.80;99.90
12688;DHT22;6408;59.388;17.798;2023-07-09T04:20:49;18.90;99.90
12688;DHT22;6408;59.388;17.798;2023-07-09T04:23:18;19.10;99.90
12688;DHT22;6408;59.388;17.798;2023-07-09T04:25:45;19.10;99.90
12688;DHT22;6408;59.388;17.798;2023-07-09T04:28:15;19.20;99.90
12688;DHT22;6408;59.388;17.798;2023-07-09T04:30:47;19.40;99.90
12688;DHT22;6408;59.388;17.798;2023-07-09T04:33:15;19.40;99.90
12688;DHT22;6408;59.388;17.798;2023-07-09T04:35:44;19.50;99.90
12688;DHT22;6408;59.388;17.798;2023-07-09T04:38:12;19.60;99.90
12688;DHT22;6408;59.388;17.798;2023-07-09T04:40:40;19.80;99.90
12688;DHT22;6408;59.388;17.798;2023-07-09T04:43:08;19.90;99.90
12688;DHT22;6408;59.388;17.798;2023-07-09T04:45:37;19.90;99.90
12688;DHT22;6408;59.388;17.798;2023-07-09T04:48:05;20.00;99.90
12688;DHT22;6408;59.388;17.798;2023-07-09T04:50:33;20.10;99.90
12688;DHT22;6408;59.388;17.798;2023-07-09T04:53:01;20.10;99.90
12688;DHT22;6408;59.388;17.798;2023-07-09T04:55:29;20.20;99.90
12688;DHT22;6408;59.388;17.798;2023-07-09T04:57:57;20.30;99.90
12688;DHT22;6408;59.388;17.798;2023-07-09T05:00:25;20.40;99.90
12688;DHT22;6408;59.388;17.798;2023-07-09T05:02:54;20.50;99.90
12688;DHT22;6408;59.388;17.798;2023-07-09T05:05:22;20.60;99.90
12688;DHT22;6408;59.388;17.798;2023-07-09T05:07:50;20.70;99.90
12688;DHT22;6408;59.388;17.798;2023-07-09T05:10:18;20.60;99.90
12688;DHT22;6408;59.388;17.798;2023-07-09T05:12:49;20.70;99.90
12688;DHT22;6408;59.388;17.798;2023-07-09T05:15:17;20.80;99.90
12688;DHT22;6408;59.388;17.798;2023-07-09T05:17:45;20.70;99.90
12688;DHT22;6408;59.388;17.798;2023-07-09T05:20:15;20.70;99.90
12688;DHT22;6408;59.388;17.798;2023-07-09T05:22:43;20.80;99.90
12688;DHT22;6408;59.388;17.798;2023-07-09T05:25:11;20.80;99.90
12688;DHT22;6408;59.388;17.798;2023-07-09T05:27:38;20.90;99.90
12688;DHT22;6408;59.388;17.798;2023-07-09T05:30:07;21.00;99.90
12688;DHT22;6408;59.388;17.798;2023-07-09T05:32:36;21.10;99.90
12688;DHT22;6408;59.388;17.798;2023-07-09T05:35:05;21.10;99.90
12688;DHT22;6408;59.388;17.798;2023-07-09T05:37:35;21.10;99.90
12688;DHT22;6408;59.388;17.798;2023-07-09T05:40:04;21.20;99.90
12688;DHT22;6408;59.388;17.798;2023-07-09T05:42:32;21.40;99.90
12688;DHT22;6408;59.388;17.798;2023-07-09T05:44:59;21.50;99.90
12688;DHT22;6408;59.388;17.798;2023-07-09T05:47:27;21.60;99.90
12688;DHT22;6408;59.388;17.798;2023-07-09T05:49:55;21.70;99.90
12688;DHT22;6408;59.388;17.798;2023-07-09T05:52:23;21.80;99.90
12688;DHT22;6408;59.388;17.798;2023-07-09T05:54:52;22.00;99.90
12688;DHT22;6408;59.388;17.798;2023-07-09T05:57:20;22.00;99.90
12688;DHT22;6408;59.388;17.798;2023-07-09T05:59:48;22.20;99.90
12688;DHT22;6408;59.388;17.798;2023-07-09T06:02:17;22.20;99.90
12688;DHT22;6408;59.388;17.798;2023-07-09T06:04:45;22.20;99.90
12688;DHT22;6408;59.388;17.798;2023-07-09T06:07:15;22.20;99.90
12688;DHT22;6408;59.388;17.798;2023-07-09T06:09:44;22.40;99.90
12688;DHT22;6408;59.388;17.798;2023-07-09T06:12:15;22.40;99.90
12688;DHT22;6408;59.388;17.798;2023-07-09T06:14:44;22.40;99.90
12688;DHT22;6408;59.388;17.798;2023-07-09T06:17:12;22.40;99.90
12688;DHT22;6408;59.388;17.798;2023-07-09T06:19:40;22.40;99.90
12688;DHT22;6408;59.388;17.798;2023-07-09T06:22:07;22.40;99.90
12688;DHT22;6408;59.388;17.798;2023-07-09T06:24:35;22.50;99.90
12688;DHT22;6408;59.388;17.798;2023-07-09T06:27:03;22.40;99.90
12688;DHT22;6408;59.388;17.798;2023-07-09T06:29:33;22.50;99.90
12688;DHT22;6408;59.388;17.798;2023-07-09T06:32:00;22.70;99.90
12688;DHT22;6408;59.388;17.798;2023-07-09T06:34:28;22.70;99.90
12688;DHT22;6408;59.388;17.798;2023-07-09T06:36:56;22.80;99.90
12688;DHT22;6408;59.388;17.798;2023-07-09T06:39:24;22.90;99.90
12688;DHT22;6408;59.388;17.798;2023-07-09T06:41:51;23.00;99.90
12688;DHT22;6408;59.388;17.798;2023-07-09T06:44:19;23.20;99.90
12688;DHT22;6408;59.388;17.798;2023-07-09T06:46:48;23.20;99.90
12688;DHT22;6408;59.388;17.798;2023-07-09T06:49:16;23.30;99.90
12688;DHT22;6408;59.388;17.798;2023-07-09T06:51:44;23.50;99.90
12688;DHT22;6408;59.388;17.798;2023-07-09T06:54:12;23.60;99.90
12688;DHT22;6408;59.388;17.798;2023-07-09T06:56:41;23.50;99.90
12688;DHT22;6408;59.388;17.798;2023-07-09T06:59:08;23.40;99.90
12688;DHT22;6408;59.388;17.798;2023-07-09T07:01:36;23.50;99.90
12688;DHT22;6408;59.388;17.798;2023-07-09T07:04:06;23.50;99.90
12688;DHT22;6408;59.388;17.798;2023-07-09T07:06:34;23.70;99.90
12688;DHT22;6408;59.388;17.798;2023-07-09T07:09:01;24.00;99.90
12688;DHT22;6408;59.388;17.798;2023-07-09T07:11:29;23.60;99.90
12688;DHT22;6408;59.388;17.798;2023-07-09T07:13:57;23.70;99.90
12688;DHT22;6408;59.388;17.798;2023-07-09T07:16:25;23.90;99.90
12688;DHT22;6408;59.388;17.798;2023-07-09T07:18:52;24.00;99.90
12688;DHT22;6408;59.388;17.798;2023-07-09T07:21:22;24.20;99.90
12688;DHT22;6408;59.388;17.798;2023-07-09T07:23:49;24.10;99.90
12688;DHT22;6408;59.388;17.798;2023-07-09T07:26:17;24.20;99.90
12688;DHT22;6408;59.388;17.798;2023-07-09T07:28:46;24.20;99.90
12688;DHT22;6408;59.388;17.798;2023-07-09T07:31:14;24.30;99.90
12688;DHT22;6408;59.388;17.798;2023-07-09T07:33:41;24.40;99.90
12688;DHT22;6408;59.388;17.798;2023-07-09T07:36:10;24.50;99.90
12688;DHT22;6408;59.388;17.798;2023-07-09T07:38:39;24.80;99.90
12688;DHT22;6408;59.388;17.798;2023-07-09T07:41:07;24.70;99.90
12688;DHT22;6408;59.388;17.798;2023-07-09T07:43:35;24.80;99.90
12688;DHT22;6408;59.388;17.798;2023-07-09T07:46:02;24.80;99.90
12688;DHT22;6408;59.388;17.798;2023-07-09T07:48:30;25.00;99.90
12688;DHT22;6408;59.388;17.798;2023-07-09T07:51:02;24.80;99.90
12688;DHT22;6408;59.388;17.798;2023-07-09T07:53:30;24.90;99.90
12688;DHT22;6408;59.388;17.798;2023-07-09T07:55:59;25.10;99.90
12688;DHT22;6408;59.388;17.798;2023-07-09T07:58:28;25.10;99.90
12688;DHT22;6408;59.388;17.798;2023-07-09T08:00:56;25.40;99.90
12688;DHT22;6408;59.388;17.798;2023-07-09T08:03:24;25.30;99.90
12688;DHT22;6408;59.388;17.798;2023-07-09T08:05:52;25.20;99.90
12688;DHT22;6408;59.388;17.798;2023-07-09T08:08:20;25.40;99.90
12688;DHT22;6408;59.388;17.798;2023-07-09T08:10:49;25.40;99.90
12688;DHT22;6408;59.388;17.798;2023-07-09T08:13:19;25.30;99.90
12688;DHT22;6408;59.388;17.798;2023-07-09T08:15:48;25.40;99.90
12688;DHT22;6408;59.388;17.798;2023-07-09T08:18:15;25.40;99.90
12688;DHT22;6408;59.388;17.798;2023-07-09T08:20:44;25.60;99.90
12688;DHT22;6408;59.388;17.798;2023-07-09T08:23:12;25.70;99.90
12688;DHT22;6408;59.388;17.798;2023-07-09T08:25:39;25.80;99.90
12688;DHT22;6408;59.388;17.798;2023-07-09T08:28:07;25.50;99.90
12688;DHT22;6408;59.388;17.798;2023-07-09T08:30:36;25.60;99.90
12688;DHT22;6408;59.388;17.798;2023-07-09T08:33:04;25.70;99.90
12688;DHT22;6408;59.388;17.798;2023-07-09T08:35:31;25.80;99.90
12688;DHT22;6408;59.388;17.798;2023-07-09T08:37:59;25.80;99.90
12688;DHT22;6408;59.388;17.798;2023-07-09T08:40:27;26.00;99.90
12688;DHT22;6408;59.388;17.798;2023-07-09T08:42:58;26.10;99.90
12688;DHT22;6408;59.388;17.798;2023-07-09T08:45:34;26.40;99.90
12688;DHT22;6408;59.388;17.798;2023-07-09T08:48:09;26.60;99.90
12688;DHT22;6408;59.388;17.798;2023-07-09T08:50:42;26.30;99.90
12688;DHT22;6408;59.388;17.798;2023-07-09T08:53:17;26.10;99.90
12688;DHT22;6408;59.388;17.798;2023-07-09T08:55:48;25.90;99.90
12688;DHT22;6408;59.388;17.798;2023-07-09T08:58:21;26.10;99.90
12688;DHT22;6408;59.388;17.798;2023-07-09T09:00:54;25.90;99.90
12688;DHT22;6408;59.388;17.798;2023-07-09T09:03:31;26.20;99.90
12688;DHT22;6408;59.388;17.798;2023-07-09T09:06:10;26.40;99.90
12688;DHT22;6408;59.388;17.798;2023-07-09T09:08:41;26.40;99.90
12688;DHT22;6408;59.388;17.798;2023-07-09T09:11:16;26.00;99.90
12688;DHT22;6408;59.388;17.798;2023-07-09T09:13:48;25.70;99.90
12688;DHT22;6408;59.388;17.798;2023-07-09T09:16:24;25.40;99.90
12688;DHT22;6408;59.388;17.798;2023-07-09T09:18:57;25.80;99.90
12688;DHT22;6408;59.388;17.798;2023-07-09T09:21:28;26.10;99.90
12688;DHT22;6408;59.388;17.798;2023-07-09T09:23:58;26.50;99.90
12688;DHT22;6408;59.388;17.798;2023-07-09T09:26:31;26.70;99.90
12688;DHT22;6408;59.388;17.798;2023-07-09T09:28:59;26.70;99.90
12688;DHT22;6408;59.388;17.798;2023-07-09T09:31:28;26.80;99.90
12688;DHT22;6408;59.388;17.798;2023-07-09T09:33:59;26.90;99.90
12688;DHT22;6408;59.388;17.798;2023-07-09T09:36:27;26.70;99.90
12688;DHT22;6408;59.388;17.798;2023-07-09T09:38:54;26.90;99.90
12688;DHT22;6408;59.388;17.798;2023-07-09T09:41:24;27.30;99.90
12688;DHT22;6408;59.388;17.798;2023-07-09T09:43:53;27.80;99.90
12688;DHT22;6408;59.388;17.798;2023-07-09T09:46:26;28.10;99.90
12688;DHT22;6408;59.388;17.798;2023-07-09T09:48:56;28.10;99.90
12688;DHT22;6408;59.388;17.798;2023-07-09T09:51:28;28.10;99.90
12688;DHT22;6408;59.388;17.798;2023-07-09T09:53:58;28.00;99.90
12688;DHT22;6408;59.388;17.798;2023-07-09T09:56:28;27.70;99.90
12688;DHT22;6408;59.388;17.798;2023-07-09T09:58:57;27.50;99.90
12688;DHT22;6408;59.388;17.798;2023-07-09T10:01:28;27.50;99.90
12688;DHT22;6408;59.388;17.798;2023-07-09T10:03:58;27.80;99.90
12688;DHT22;6408;59.388;17.798;2023-07-09T10:06:34;27.80;99.90
12688;DHT22;6408;59.388;17.798;2023-07-09T10:09:13;27.50;99.90
12688;DHT22;6408;59.388;17.798;2023-07-09T10:11:46;27.10;99.90
12688;DHT22;6408;59.388;17.798;2023-07-09T10:14:26;26.80;99.90
12688;DHT22;6408;59.388;17.798;2023-07-09T10:17:11;27.10;99.90
12688;DHT22;6408;59.388;17.798;2023-07-09T10:19:53;26.80;99.90
12688;DHT22;6408;59.388;17.798;2023-07-09T10:22:40;26.60;99.90
12688;DHT22;6408;59.388;17.798;2023-07-09T10:25:17;26.80;99.90
12688;DHT22;6408;59.388;17.798;2023-07-09T10:27:58;26.60;99.90
12688;DHT22;6408;59.388;17.798;2023-07-09T10:30:40;26.60;99.90
12688;DHT22;6408;59.388;17.798;2023-07-09T10:33:11;26.70;99.90
12688;DHT22;6408;59.388;17.798;2023-07-09T10:35:46;26.70;99.90
12688;DHT22;6408;59.388;17.798;2023-07-09T10:38:40;27.00;99.90
12688;DHT22;6408;59.388;17.798;2023-07-09T10:41:12;27.60;99.90
12688;DHT22;6408;59.388;17.798;2023-07-09T10:43:44;27.80;99.90
12688;DHT22;6408;59.388;17.798;2023-07-09T10:46:15;27.30;99.90
12688;DHT22;6408;59.388;17.798;2023-07-09T10:48:46;27.20;99.90
12688;DHT22;6408;59.388;17.798;2023-07-09T10:51:21;27.40;99.90
12688;DHT22;6408;59.388;17.798;2023-07-09T10:53:56;28.00;99.90
12688;DHT22;6408;59.388;17.798;2023-07-09T10:56:27;28.10;99.90
12688;DHT22;6408;59.388;17.798;2023-07-09T10:59:01;28.00;99.90
12688;DHT22;6408;59.388;17.798;2023-07-09T11:01:35;27.80;99.90
12688;DHT22;6408;59.388;17.798;2023-07-09T11:04:16;27.40;99.90
12688;DHT22;6408;59.388;17.798;2023-07-09T11:06:48;27.00;99.90
12688;DHT22;6408;59.388;17.798;2023-07-09T11:09:23;26.80;99.90
12688;DHT22;6408;59.388;17.798;2023-07-09T11:11:54;27.10;99.90
12688;DHT22;6408;59.388;17.798;2023-07-09T11:14:27;27.40;99.90
12688;DHT22;6408;59.388;17.798;2023-07-09T11:16:58;27.70;99.90
12688;DHT22;6408;59.388;17.798;2023-07-09T11:19:27;27.40;99.90
12688;DHT22;6408;59.388;17.798;2023-07-09T11:22:04;27.40;99.90
12688;DHT22;6408;59.388;17.798;2023-07-09T11:24:45;27.40;99.90
12688;DHT22;6408;59.388;17.798;2023-07-09T11:27:22;27.20;99.90
12688;DHT22;6408;59.388;17.798;2023-07-09T11:29:57;27.20;99.90
12688;DHT22;6408;59.388;17.798;2023-07-09T11:32:26;27.20;99.90
12688;DHT22;6408;59.388;17.798;2023-07-09T11:35:06;27.70;99.90
12688;DHT22;6408;59.388;17.798;2023-07-09T11:37:44;27.90;99.90
12688;DHT22;6408;59.388;17.798;2023-07-09T11:40:15;27.70;99.90
12688;DHT22;6408;59.388;17.798;2023-07-09T11:42:52;27.20;99.90
12688;DHT22;6408;59.388;17.798;2023-07-09T11:45:23;26.90;99.90
12688;DHT22;6408;59.388;17.798;2023-07-09T11:47:57;26.80;99.90
12688;DHT22;6408;59.388;17.798;2023-07-09T11:50:33;26.60;99.90
12688;DHT22;6408;59.388;17.798;2023-07-09T11:53:04;26.90;99.90
12688;DHT22;6408;59.388;17.798;2023-07-09T11:55:39;27.30;99.90
12688;DHT22;6408;59.388;17.798;2023-07-09T11:58:10;27.80;99.90
12688;DHT22;6408;59.388;17.798;2023-07-09T12:00:40;27.90;99.90
12688;DHT22;6408;59.388;17.798;2023-07-09T12:03:15;28.10;99.90
12688;DHT22;6408;59.388;17.798;2023-07-09T12:05:49;27.80;99.90
12688;DHT22;6408;59.388;17.798;2023-07-09T12:08:18;27.40;99.90
12688;DHT22;6408;59.388;17.798;2023-07-09T12:10:53;27.20;99.90
12688;DHT22;6408;59.388;17.798;2023-07-09T12:13:20;26.90;99.90
12688;DHT22;6408;59.388;17.798;2023-07-09T12:15:48;26.70;99.90
12688;DHT22;6408;59.388;17.798;2023-07-09T12:18:16;26.50;99.90
12688;DHT22;6408;59.388;17.798;2023-07-09T12:20:48;26.40;99.90
12688;DHT22;6408;59.388;17.798;2023-07-09T12:23:22;26.40;99.90
12688;DHT22;6408;59.388;17.798;2023-07-09T12:25:53;26.70;99.90
12688;DHT22;6408;59.388;17.798;2023-07-09T12:28:21;26.60;99.90
12688;DHT22;6408;59.388;17.798;2023-07-09T12:30:51;26.50;99.90
12688;DHT22;6408;59.388;17.798;2023-07-09T12:33:20;26.50;99.90
12688;DHT22;6408;59.388;17.798;2023-07-09T12:35:52;26.60;99.90
12688;DHT22;6408;59.388;17.798;2023-07-09T12:38:22;26.70;99.90
12688;DHT22;6408;59.388;17.798;2023-07-09T12:40:52;26.90;99.90
12688;DHT22;6408;59.388;17.798;2023-07-09T12:43:26;27.40;99.90
12688;DHT22;6408;59.388;17.798;2023-07-09T12:45:58;27.50;99.90
12688;DHT22;6408;59.388;17.798;2023-07-09T12:48:27;27.60;99.90
12688;DHT22;6408;59.388;17.798;2023-07-09T12:50:56;27.30;99.90
12688;DHT22;6408;59.388;17.798;2023-07-09T12:53:26;26.70;99.90
12688;DHT22;6408;59.388;17.798;2023-07-09T12:55:57;26.60;99.90
12688;DHT22;6408;59.388;17.798;2023-07-09T12:58:28;26.30;99.90
12688;DHT22;6408;59.388;17.798;2023-07-09T13:00:57;26.20;99.90
12688;DHT22;6408;59.388;17.798;2023-07-09T13:03:28;26.30;99.90
12688;DHT22;6408;59.388;17.798;2023-07-09T13:05:58;26.40;99.90
12688;DHT22;6408;59.388;17.798;2023-07-09T13:08:26;26.40;99.90
12688;DHT22;6408;59.388;17.798;2023-07-09T13:10:56;26.90;99.90
12688;DHT22;6408;59.388;17.798;2023-07-09T13:13:25;27.10;99.90
12688;DHT22;6408;59.388;17.798;2023-07-09T13:15:55;27.10;99.90
12688;DHT22;6408;59.388;17.798;2023-07-09T13:18:25;27.00;99.90
12688;DHT22;6408;59.388;17.798;2023-07-09T13:20:55;26.60;99.90
12688;DHT22;6408;59.388;17.798;2023-07-09T13:23:25;26.20;99.90
12688;DHT22;6408;59.388;17.798;2023-07-09T13:25:54;25.90;99.90
12688;DHT22;6408;59.388;17.798;2023-07-09T13:28:27;25.70;99.90
12688;DHT22;6408;59.388;17.798;2023-07-09T13:30:57;25.60;99.90
12688;DHT22;6408;59.388;17.798;2023-07-09T13:33:25;25.50;99.90
12688;DHT22;6408;59.388;17.798;2023-07-09T13:35:53;25.60;99.90
12688;DHT22;6408;59.388;17.798;2023-07-09T13:38:22;25.50;99.90
12688;DHT22;6408;59.388;17.798;2023-07-09T13:40:53;25.40;99.90
12688;DHT22;6408;59.388;17.798;2023-07-09T13:43:29;25.50;99.90
12688;DHT22;6408;59.388;17.798;2023-07-09T13:45:57;26.00;99.90
12688;DHT22;6408;59.388;17.798;2023-07-09T13:48:26;26.40;99.90
12688;DHT22;6408;59.388;17.798;2023-07-09T13:50:54;26.80;99.90
12688;DHT22;6408;59.388;17.798;2023-07-09T13:53:24;26.90;99.90
12688;DHT22;6408;59.388;17.798;2023-07-09T13:55:53;27.20;99.90
12688;DHT22;6408;59.388;17.798;2023-07-09T13:58:24;27.20;99.90
12688;DHT22;6408;59.388;17.798;2023-07-09T14:00:56;27.20;99.90
12688;DHT22;6408;59.388;17.798;2023-07-09T14:03:32;27.20;99.90
12688;DHT22;6408;59.388;17.798;2023-07-09T14:06:00;27.40;99.90
12688;DHT22;6408;59.388;17.798;2023-07-09T14:08:27;27.20;99.90
12688;DHT22;6408;59.388;17.798;2023-07-09T14:10:55;26.80;99.90
12688;DHT22;6408;59.388;17.798;2023-07-09T14:13:24;26.50;99.90
12688;DHT22;6408;59.388;17.798;2023-07-09T14:15:53;26.10;99.90
12688;DHT22;6408;59.388;17.798;2023-07-09T14:18:22;26.00;99.90
12688;DHT22;6408;59.388;17.798;2023-07-09T14:20:50;25.70;99.90
12688;DHT22;6408;59.388;17.798;2023-07-09T14:23:19;25.60;99.90
12688;DHT22;6408;59.388;17.798;2023-07-09T14:25:47;25.50;99.90
12688;DHT22;6408;59.388;17.798;2023-07-09T14:28:17;25.40;99.90
12688;DHT22;6408;59.388;17.798;2023-07-09T14:30:47;25.40;99.90
12688;DHT22;6408;59.388;17.798;2023-07-09T14:33:19;25.60;99.90
12688;DHT22;6408;59.388;17.798;2023-07-09T14:35:48;26.00;99.90
12688;DHT22;6408;59.388;17.798;2023-07-09T14:38:18;26.40;99.90
12688;DHT22;6408;59.388;17.798;2023-07-09T14:40:46;26.70;99.90
12688;DHT22;6408;59.388;17.798;2023-07-09T14:43:14;27.10;99.90
12688;DHT22;6408;59.388;17.798;2023-07-09T14:45:42;27.20;99.90
12688;DHT22;6408;59.388;17.798;2023-07-09T14:48:12;27.10;99.90
12688;DHT22;6408;59.388;17.798;2023-07-09T14:50:42;26.60;99.90
12688;DHT22;6408;59.388;17.798;2023-07-09T14:53:13;26.30;99.90
12688;DHT22;6408;59.388;17.798;2023-07-09T14:55:42;26.00;99.90
12688;DHT22;6408;59.388;17.798;2023-07-09T14:58:15;25.80;99.90
12688;DHT22;6408;59.388;17.798;2023-07-09T15:00:44;25.60;99.90
12688;DHT22;6408;59.388;17.798;2023-07-09T15:03:18;25.50;99.90
12688;DHT22;6408;59.388;17.798;2023-07-09T15:05:48;25.40;99.90
12688;DHT22;6408;59.388;17.798;2023-07-09T15:08:16;25.60;99.90
12688;DHT22;6408;59.388;17.798;2023-07-09T15:10:47;25.90;99.90
12688;DHT22;6408;59.388;17.798;2023-07-09T15:13:19;26.10;99.90
12688;DHT22;6408;59.388;17.798;2023-07-09T15:15:47;26.40;99.90
12688;DHT22;6408;59.388;17.798;2023-07-09T15:18:15;26.50;99.90
12688;DHT22;6408;59.388;17.798;2023-07-09T15:20:50;26.50;99.90
12688;DHT22;6408;59.388;17.798;2023-07-09T15:23:18;26.40;99.90
12688;DHT22;6408;59.388;17.798;2023-07-09T15:25:48;26.50;99.90
12688;DHT22;6408;59.388;17.798;2023-07-09T15:28:16;26.60;99.90
12688;DHT22;6408;59.388;17.798;2023-07-09T15:30:43;26.70;99.90
12688;DHT22;6408;59.388;17.798;2023-07-09T15:33:14;26.70;99.90
12688;DHT22;6408;59.388;17.798;2023-07-09T15:35:43;26.60;99.90
12688;DHT22;6408;59.388;17.798;2023-07-09T15:38:27;26.80;99.90
12688;DHT22;6408;59.388;17.798;2023-07-09T15:40:56;26.90;99.90
12688;DHT22;6408;59.388;17.798;2023-07-09T15:43:24;27.00;99.90
12688;DHT22;6408;59.388;17.798;2023-07-09T15:45:55;27.20;99.90
12688;DHT22;6408;59.388;17.798;2023-07-09T15:48:26;27.10;99.90
12688;DHT22;6408;59.388;17.798;2023-07-09T15:50:54;26.90;99.90